Phillipsburg, NJ

3:53 PM EDT on March 26, 2015 (GMT -0400)
Lehigh Valley International | Change Station
CLOSE
Current Station
Airport
Location: Allentown,
Elevation: 384 ft
Nearby Weather Stations

Elev 384 ft 40.65 °N, 75.45 °W | Updated 1 hour ago

Fog
Fog
48 °F
Feels Like 48 °F
N
4
Wind Variable Wind from North

Today
High -- | Low -- °F
--% Chance of Precip.
Yesterday
High -- | Low -- °F
Precip. -- in
6:54 AM 7:18 PM
Waxing Crescent, 45% visible
Pressure 29.71 in
Visibility 2.5 miles
Clouds Overcast 600 ft
Dew Point 45 °F
Humidity 89%
Rainfall 0.03 in
Snow Depth Not available.
UV 2 out of 12
Pollen 6.50 out of 12
Air Quality Not available.
Flu Activity Not available.
METAR KABE 261851Z 36003KT 2 1/2SM BR OVC006 09/07 A2970 RMK AO2 RAB1759E10 SLP060 P0000 T00890072

More Conditions Fewer Conditions

Pressure 29.71 in
Visibility 2.5 miles
Clouds Overcast 600 ft
Dew Point 45 °F
Humidity 89%
Rainfall 0.03 in
Snow Depth Not available.
UV 2 out of 12
Pollen 6.50 out of 12
Air Quality Not available.
Flu Activity Not available.
METAR KABE 261851Z 36003KT 2 1/2SM BR OVC006 09/07 A2970 RMK AO2 RAB1759E10 SLP060 P0000 T00890072

More Conditions Fewer Conditions

Nowcast | as of 3:00 PM EDT on March 26, 2015

Light rain, or patchy drizzle or fog will continue across the area through the late afternoon hours. Where winds are light and variable, they are expected to increase to south to southwest around 10 to 15 mph with gusts of 20 to 25 mph through this afternoon.

×

10-Day Weather Forecast

Almanac

Astronomy

Mar. 26, 2015 Rise Set
Actual Time
Civil Twilight
Nautical Twilight
Astronomical Twilight
Moon
Length of Visible Light
Length of Day
Tomorrow will be .
, % of the Moon is Illuminated

Today's Extremes

State Highs State Lows

Community

WunderPhotos

Upload Photos

1,808,607 photos uploaded!

WunderBlogs® & News

Nearby

Air Quality

  Air Quality AQ Index Pollutant
Not available.

Snow Depth

Station Depth Elevation

Earthquake Activity

City Distance Mag. Time & Date
Minimum magnitude displayed is 2.5.

Coastal Water Temperatures

Place Temperature

Stations

Nearby Weather Stations

Station Location Temp. Windchill Dew Point Humidity Wind Precip. Elev Updated Type